Terminal Aerodrome Forecast
Issued by NWS Charleston, WV

Current Version | Previous Version | Graphics & Text | Print | Product List | Glossary On
Versions: 1 2 3 4 5 6 7 8 9 10 11 12 13 14 15 16 17 18 19 20 21 22
776
FTUS41 KRLX 191721
TAFEKN
TAF
KEKN 191721Z 1918/2018 27006KT P6SM OVC012
     FM192000 27006KT P6SM BKN018
     FM200000 00000KT P6SM BKN015
     FM201500 VRB03KT P6SM SCT015
     FM201700 VRB03KT P6SM SCT250=

USA.gov is the U.S. government's official web portal to all federal, state and local government web resources and services.